Meteo Giornale » Osservazioni meteo Stati Uniti (USA) » Gainesville Gilmer Memorial
ore: 01:55 - Osservazioni Meteo Gainesville Gilmer Memorial
Lat. 34° 16' N Lon. 83° 49' W Alt. 388 metri s.l.m.
24 °C
Sereno
Temp. 24 Ore
22 °C
33 °C
Nord
5.5 Km/h
Dew point 21 °C
Umidità 83 %
Visibilità 10 Km
Il sole sorge alle ore 07:08
Il sole tramonta alle ore 20:01
| Data e Ora | Cielo e Fenomeni | T °C | DP °C | Um. % | Pres. hPa | Vis. km | Vento km/h | |
|---|---|---|---|---|---|---|---|---|
| Oggi h: 01:55 | Sereno | 24 | 21 | 83 | 1021 | 10 | N 5.5 | |
| Oggi h: 00:55 | Sereno | 25 | 21 | 78 | 1021 | 10 | N 5.5 | |
| Ieri h: 23:55 | Sereno | 26 | 21 | 73 | 1021 | 10 | N 0 | |
| Ieri h: 22:55 | Sereno | 27 | 21 | 69 | 1020 | 10 | NE 7.4 | |
| Ieri h: 21:55 | Sereno | 28 | 21 | 65 | 1020 | 10 | N 0 | |
| Ieri h: 20:55 | Sereno | 28 | 20 | 61 | 1020 | 10 | N 0 | |
| Ieri h: 19:55 | Sereno | 29 | 21 | 62 | 1019 | 10 | N 0 | |
| Ieri h: 18:55 | Sereno | 31 | 20 | 52 | 1020 | 10 | SE 7.4 | |
| Ieri h: 17:55 | Sereno | 32 | 19 | 46 | 1020 | 10 | E/SE 9.3 | |
| Ieri h: 16:55 | Sereno | 32 | 18 | 43 | 1020 | 10 | N 7.4 | |
| Ieri h: 15:55 | Poco Nuvoloso | 33 | 20 | 46 | 1020 | 10 | N 0 | |
| Ieri h: 14:55 | Molto Nuvoloso | 31 | 19 | 48 | 1021 | 10 | N 0 | |
| Ieri h: 13:55 | Sereno | 30 | 20 | 55 | 1021 | 10 | N 5.5 | |
| Ieri h: 12:55 | Poco Nuvoloso | 30 | 21 | 58 | 1022 | 10 | N 7.4 | |
| Ieri h: 11:55 | Nuvoloso | 28 | 22 | 69 | 1023 | 10 | N 5.5 | |
| Ieri h: 10:55 | Nuvoloso | 27 | 22 | 74 | 1023 | 10 | N 9.3 | |
| Ieri h: 10:30 | Molto Nuvoloso | 27 | 22 | 74 | 1022 | 10 | NO 7.4 | |
| Ieri h: 09:55 | Poco Nuvoloso | 26 | 22 | 78 | 1022 | 10 | N 0 | |
| Ieri h: 08:55 | Sereno | 24 | 22 | 88 | 1022 | 10 | N 0 | |
| Ieri h: 07:55 | Sereno | 22 | 21 | 94 | 1022 | 10 | N 5.5 | |
| Ieri h: 06:55 | Sereno | 22 | 21 | 94 | 1021 | 10 | N 5.5 | |
| Ieri h: 05:55 | Sereno | 22 | 21 | 94 | 1021 | 10 | E 7.4 | |
| Ieri h: 04:55 | Molto Nuvoloso | 22 | 21 | 94 | 1021 | 10 | N 5.5 | |
| Ieri h: 03:55 | Sereno | 22 | 21 | 94 | 1021 | 10 | N 5.5 | |
| Ieri h: 02:55 | Sereno | 23 | 20 | 83 | 1021 | 10 | N 5.5 | |



